createdAt,value
2022-11-22T00:01:26.827Z,6.17
2022-11-22T00:04:28.355Z,5.03
2022-11-22T00:07:30.096Z,5.20
2022-11-22T00:10:32.063Z,5.50
2022-11-22T00:13:33.692Z,5.47
2022-11-22T00:16:35.302Z,5.20
2022-11-22T00:19:39.484Z,5.40
2022-11-22T00:22:44.425Z,5.03
2022-11-22T00:25:46.824Z,5.43
2022-11-22T00:28:48.471Z,5.33
2022-11-22T00:31:50.047Z,4.90
2022-11-22T00:34:51.585Z,5.17
2022-11-22T00:37:53.195Z,5.37
2022-11-22T00:40:54.774Z,5.63
2022-11-22T00:43:56.342Z,5.60
2022-11-22T00:46:58.172Z,6.13
2022-11-22T00:49:59.750Z,6.43
2022-11-22T00:53:01.347Z,6.87
2022-11-22T00:56:03.076Z,6.77
2022-11-22T00:59:04.749Z,6.93
2022-11-22T01:02:06.294Z,6.57
2022-11-22T01:05:08.081Z,7.13
2022-11-22T01:08:09.812Z,7.23
2022-11-22T01:11:11.785Z,7.43
2022-11-22T01:14:13.726Z,7.00
2022-11-22T01:17:15.286Z,7.93
2022-11-22T01:20:16.963Z,7.40
2022-11-22T01:23:18.613Z,8.73
2022-11-22T01:26:20.320Z,7.00
2022-11-22T01:29:21.957Z,6.90
2022-11-22T01:32:23.545Z,7.00
2022-11-22T01:35:25.112Z,7.60
2022-11-22T01:38:26.770Z,7.13
2022-11-22T01:41:28.606Z,6.73
2022-11-22T01:44:31.631Z,6.90
2022-11-22T01:47:33.228Z,6.70
2022-11-22T01:50:36.815Z,6.53
2022-11-22T01:53:39.079Z,6.73
2022-11-22T01:56:41.732Z,6.90
2022-11-22T01:59:46.322Z,7.43
2022-11-22T02:02:51.455Z,6.77
2022-11-22T02:05:53.365Z,6.97
2022-11-22T02:09:07.806Z,7.13
2022-11-22T02:12:10.050Z,6.93
2022-11-22T02:15:11.913Z,7.23
2022-11-22T02:18:14.039Z,6.47
2022-11-22T02:21:15.706Z,6.87
2022-11-22T02:24:21.681Z,6.67
2022-11-22T02:27:23.602Z,7.57
2022-11-22T02:30:25.297Z,7.40
2022-11-22T02:33:26.909Z,7.43
2022-11-22T02:36:28.731Z,7.57
2022-11-22T02:39:31.731Z,7.40
2022-11-22T02:42:33.835Z,6.93
2022-11-22T02:45:35.363Z,7.40
2022-11-22T02:48:43.618Z,8.47
2022-11-22T02:51:45.371Z,9.43
2022-11-22T02:54:46.913Z,9.00
2022-11-22T02:57:48.468Z,9.10
2022-11-22T03:00:50.149Z,8.80
2022-11-22T03:03:51.827Z,7.40
2022-11-22T03:06:57.378Z,8.63
2022-11-22T03:09:58.972Z,9.87
2022-11-22T03:13:00.536Z,9.37
2022-11-22T03:16:02.110Z,7.87
2022-11-22T03:19:03.736Z,7.50
2022-11-22T03:22:05.330Z,7.83
2022-11-22T03:25:07.270Z,8.50
2022-11-22T03:28:08.970Z,7.57
2022-11-22T03:31:10.565Z,7.47
2022-11-22T03:34:12.695Z,7.40
2022-11-22T03:37:14.254Z,7.20
2022-11-22T03:40:15.880Z,8.03
2022-11-22T03:43:17.492Z,7.47
2022-11-22T03:46:22.241Z,7.77
2022-11-22T03:49:23.870Z,7.10
2022-11-22T03:52:25.504Z,7.90
2022-11-22T03:55:27.119Z,7.13
2022-11-22T03:58:28.795Z,7.37
2022-11-22T04:01:30.368Z,7.37
2022-11-22T04:04:32.011Z,7.40
2022-11-22T04:07:33.678Z,7.47
2022-11-22T04:10:35.291Z,9.93
2022-11-22T04:13:55.210Z,7.10
2022-11-22T04:16:56.923Z,7.60
2022-11-22T04:20:24.869Z,8.07
2022-11-22T04:23:32.224Z,7.77
2022-11-22T04:26:35.272Z,8.43
2022-11-22T04:29:36.877Z,9.70
2022-11-22T04:32:47.731Z,9.73
2022-11-22T04:35:49.766Z,9.73
2022-11-22T04:38:52.266Z,8.67
2022-11-22T04:42:14.344Z,7.23
2022-11-22T04:45:15.923Z,9.27
2022-11-22T04:48:17.519Z,13.23
2022-11-22T04:51:37.373Z,10.47
2022-11-22T04:54:38.929Z,8.13
2022-11-22T04:57:40.564Z,8.23
2022-11-22T05:00:42.192Z,8.13
2022-11-22T05:03:43.788Z,8.27
2022-11-22T05:06:45.446Z,9.20
2022-11-22T05:09:47.084Z,11.27
2022-11-22T05:12:48.705Z,12.80
2022-11-22T05:15:51.464Z,14.00
2022-11-22T05:19:04.216Z,12.63
2022-11-22T05:22:06.355Z,13.87
2022-11-22T05:25:08.167Z,14.53
2022-11-22T05:28:09.789Z,15.63
2022-11-22T05:31:12.657Z,16.57
2022-11-22T05:34:14.336Z,15.27
2022-11-22T05:37:15.990Z,11.27
2022-11-22T05:40:17.601Z,10.73
2022-11-22T05:43:19.237Z,10.57
2022-11-22T05:46:24.889Z,11.30
2022-11-22T05:49:26.859Z,12.23
2022-11-22T05:52:28.447Z,14.73
2022-11-22T05:55:30.567Z,11.20
2022-11-22T05:58:32.290Z,10.27
2022-11-22T06:01:33.888Z,8.13
2022-11-22T06:04:35.553Z,8.77
2022-11-22T06:07:37.260Z,8.43
2022-11-22T06:10:39.179Z,8.40
2022-11-22T06:13:41.871Z,8.60
2022-11-22T06:16:43.519Z,13.93
2022-11-22T06:19:45.111Z,9.57
2022-11-22T06:22:46.767Z,7.90
2022-11-22T06:25:55.613Z,7.60
2022-11-22T06:28:57.295Z,6.83
2022-11-22T06:32:03.118Z,7.77
2022-11-22T06:35:05.222Z,9.57
2022-11-22T06:38:06.775Z,8.47
2022-11-22T06:41:25.017Z,8.07
2022-11-22T06:44:26.677Z,8.20
2022-11-22T06:47:28.264Z,8.43
2022-11-22T06:50:29.858Z,8.40
2022-11-22T06:53:46.813Z,7.80
2022-11-22T06:56:49.612Z,8.37
2022-11-22T06:59:51.259Z,8.90
2022-11-22T07:02:52.823Z,16.23
2022-11-22T07:05:54.843Z,7.80
2022-11-22T07:08:56.628Z,8.60
2022-11-22T07:11:58.372Z,7.80
2022-11-22T07:14:59.914Z,9.93
2022-11-22T07:18:01.518Z,51.83
2022-11-22T07:21:12.419Z,9.63
2022-11-22T07:24:15.163Z,33.13
2022-11-22T07:27:16.755Z,22.23
2022-11-22T07:30:18.587Z,8.50
2022-11-22T07:33:20.173Z,5.07
2022-11-22T07:36:22.018Z,5.23
2022-11-22T07:39:23.603Z,6.10
2022-11-22T07:42:26.298Z,4.33
2022-11-22T07:45:28.729Z,4.23
2022-11-22T07:48:30.467Z,5.30
2022-11-22T07:51:32.248Z,4.70
2022-11-22T07:54:33.808Z,12.67
2022-11-22T07:57:35.465Z,17.83
2022-11-22T08:00:37.060Z,10.73
2022-11-22T08:03:38.707Z,5.20
2022-11-22T08:06:40.242Z,5.53
2022-11-22T08:09:41.814Z,4.30
2022-11-22T08:12:43.620Z,4.90
2022-11-22T08:15:48.335Z,6.23
2022-11-22T08:18:50.092Z,9.27
2022-11-22T08:21:58.101Z,8.23
2022-11-22T08:25:00.203Z,6.07
2022-11-22T08:28:01.859Z,4.90
2022-11-22T08:31:12.434Z,4.30
2022-11-22T08:34:14.325Z,5.33
2022-11-22T08:37:15.873Z,5.90
2022-11-22T08:40:17.449Z,5.27
2022-11-22T08:43:19.171Z,6.43
2022-11-22T08:46:20.733Z,5.82
2022-11-22T08:49:22.369Z,4.32
2022-11-22T08:52:23.976Z,4.22
2022-11-22T08:55:25.528Z,3.78
2022-11-22T08:58:27.356Z,4.10
2022-11-22T09:01:28.982Z,10.63
2022-11-22T09:04:30.680Z,6.20
2022-11-22T09:10:53.897Z,6.82
2022-11-22T09:13:55.484Z,4.83
2022-11-22T09:16:57.080Z,5.00
2022-11-22T09:19:58.736Z,4.80
2022-11-22T09:23:01.156Z,5.40
2022-11-22T09:26:07.145Z,5.67
2022-11-22T09:29:08.802Z,10.50
2022-11-22T09:32:10.701Z,11.90
2022-11-22T09:35:12.309Z,7.50
2022-11-22T09:38:13.924Z,6.60
2022-11-22T09:41:21.616Z,7.17
2022-11-22T09:44:23.199Z,5.07
2022-11-22T09:47:37.234Z,4.10
2022-11-22T09:50:46.504Z,7.03
2022-11-22T09:53:50.631Z,3.70
2022-11-22T09:56:54.226Z,4.90
2022-11-22T10:00:03.817Z,4.83
2022-11-22T10:03:25.044Z,5.23
2022-11-22T10:06:32.762Z,4.90
2022-11-22T10:09:39.278Z,5.60
2022-11-22T10:12:46.840Z,6.20
2022-11-22T10:15:54.455Z,4.23
2022-11-22T10:18:56.047Z,6.57
2022-11-22T10:21:57.713Z,5.73
2022-11-22T10:25:00.246Z,3.37
2022-11-22T10:28:09.904Z,3.27
2022-11-22T10:31:14.551Z,3.33
2022-11-22T10:34:19.174Z,5.67
2022-11-22T10:37:26.499Z,2.43
2022-11-22T10:40:46.788Z,6.20
2022-11-22T10:44:07.148Z,2.50
2022-11-22T10:47:08.672Z,3.20
2022-11-22T10:50:33.348Z,1.90
2022-11-22T10:53:44.193Z,1.37
2022-11-22T10:56:51.515Z,4.07
2022-11-22T11:00:12.007Z,2.70
2022-11-22T11:03:29.325Z,1.60
2022-11-22T11:07:04.263Z,2.40
2022-11-22T11:10:20.310Z,2.50
2022-11-22T11:13:23.453Z,4.00
2022-11-22T11:16:26.322Z,2.03
2022-11-22T11:19:32.141Z,2.10
2022-11-22T11:23:06.447Z,1.77
2022-11-22T11:26:13.684Z,1.83
2022-11-22T11:29:18.270Z,2.40
2022-11-22T11:32:20.663Z,2.20
2022-11-22T11:35:24.439Z,2.80
2022-11-22T11:38:27.095Z,2.30
2022-11-22T11:41:29.959Z,3.40
2022-11-22T11:44:36.417Z,2.40
2022-11-22T11:47:38.011Z,2.10
2022-11-22T11:50:40.904Z,2.40
2022-11-22T11:53:43.696Z,2.33
2022-11-22T11:56:46.658Z,2.20
2022-11-22T11:59:52.136Z,1.90
2022-11-22T12:03:00.677Z,2.60
2022-11-22T12:06:12.134Z,3.00
2022-11-22T12:09:26.693Z,2.50
2022-11-22T12:12:47.042Z,2.83
2022-11-22T12:15:55.896Z,2.53
2022-11-22T12:19:20.270Z,2.03
2022-11-22T12:22:49.815Z,2.10
2022-11-22T12:25:54.936Z,1.53
2022-11-22T12:28:57.639Z,1.93
2022-11-22T12:32:01.713Z,2.03
2022-11-22T12:35:07.427Z,2.10
2022-11-22T12:38:08.987Z,2.00
2022-11-22T12:41:13.430Z,2.80
2022-11-22T12:44:17.336Z,4.10
2022-11-22T12:47:22.719Z,2.80
2022-11-22T12:50:33.507Z,2.37
2022-11-22T12:53:40.191Z,2.80
2022-11-22T12:57:07.792Z,2.20
2022-11-22T13:00:19.845Z,3.90
2022-11-22T13:03:26.175Z,2.80
2022-11-22T13:06:48.095Z,9.33
2022-11-22T13:09:53.122Z,3.43
2022-11-22T13:12:56.521Z,5.47
2022-11-22T13:16:00.307Z,4.13
2022-11-22T13:19:03.836Z,3.70
2022-11-22T13:22:15.002Z,4.90
2022-11-22T13:25:35.454Z,6.27
2022-11-22T13:28:38.487Z,3.37
2022-11-22T13:31:59.791Z,3.70
2022-11-22T13:35:13.884Z,5.03
2022-11-22T13:38:17.435Z,8.33
2022-11-22T13:41:40.189Z,4.57
2022-11-22T13:44:52.228Z,7.47
2022-11-22T13:47:53.845Z,5.33
2022-11-22T13:50:55.404Z,4.00
2022-11-22T13:54:16.945Z,4.93
2022-11-22T13:57:29.466Z,7.47
2022-11-22T14:00:31.119Z,9.70
2022-11-22T14:03:37.282Z,6.60
2022-11-22T14:06:38.945Z,11.33
2022-11-22T14:09:44.254Z,8.30
2022-11-22T14:12:58.280Z,6.27
2022-11-22T14:16:11.899Z,4.50
2022-11-22T14:19:19.234Z,4.83
2022-11-22T14:22:28.373Z,6.23
2022-11-22T14:25:43.916Z,9.23
2022-11-22T14:29:04.055Z,7.30
2022-11-22T14:32:14.629Z,3.90
2022-11-22T14:35:24.900Z,4.30
2022-11-22T14:38:31.929Z,4.30
2022-11-22T14:41:39.927Z,4.43
2022-11-22T14:44:41.909Z,3.33
2022-11-22T14:47:46.686Z,4.57
2022-11-22T14:50:54.880Z,3.80
2022-11-22T14:53:59.225Z,6.77
2022-11-22T14:57:04.664Z,6.70
2022-11-22T15:00:15.453Z,6.00
2022-11-22T15:03:26.305Z,6.70
2022-11-22T15:09:17.686Z,8.30
2022-11-22T15:10:24.729Z,8.17
2022-11-22T15:13:29.318Z,12.67
2022-11-22T15:58:02.979Z,26.00
2022-11-22T16:01:19.936Z,43.27
2022-11-22T16:04:23.493Z,21.07
2022-11-22T16:07:29.429Z,16.60
2022-11-22T16:10:33.217Z,16.23
2022-11-22T16:13:36.162Z,9.10
2022-11-22T16:16:37.762Z,10.03
2022-11-22T16:19:39.429Z,5.80
2022-11-22T16:22:41.121Z,6.50
2022-11-22T16:25:44.506Z,4.47
2022-11-22T16:28:51.326Z,5.20
2022-11-22T16:32:00.146Z,5.40
2022-11-22T16:35:27.503Z,8.40
2022-11-22T16:38:23.865Z,8.67
2022-11-22T16:41:26.924Z,10.40
2022-11-22T16:44:28.473Z,21.57
2022-11-22T16:47:30.036Z,40.30
2022-11-22T16:50:31.649Z,23.33
2022-11-22T16:53:36.807Z,18.63
2022-11-22T16:56:38.503Z,17.53
2022-11-22T16:59:40.136Z,27.60
2022-11-22T17:02:41.914Z,17.43
2022-11-22T17:05:43.831Z,14.33
2022-11-22T17:08:46.332Z,4.63
2022-11-22T17:11:47.893Z,6.03
2022-11-22T17:14:50.964Z,9.07
2022-11-22T17:17:52.566Z,10.53
2022-11-22T17:20:54.286Z,8.57
2022-11-22T17:23:56.966Z,15.07
2022-11-22T17:26:58.716Z,19.20
2022-11-22T17:30:00.369Z,8.70
2022-11-22T17:33:01.970Z,8.70
2022-11-22T17:36:03.636Z,12.67
2022-11-22T17:39:06.919Z,10.20
2022-11-22T17:42:08.858Z,12.30
2022-11-22T17:45:10.462Z,4.30
2022-11-22T17:48:12.459Z,5.70
2022-11-22T17:51:14.003Z,4.77
2022-11-22T17:54:15.848Z,7.50
2022-11-22T17:57:17.515Z,5.37
2022-11-22T18:00:19.388Z,9.33
2022-11-22T18:03:21.143Z,10.00
2022-11-22T18:06:22.931Z,5.90
2022-11-22T18:09:24.472Z,6.50
2022-11-22T18:12:26.135Z,4.03
2022-11-22T18:15:27.697Z,7.13
2022-11-22T18:18:55.271Z,3.50
2022-11-22T18:21:51.322Z,4.00
2022-11-22T18:24:52.975Z,3.50
2022-11-22T18:27:54.704Z,4.10
2022-11-22T18:30:56.736Z,3.50
2022-11-22T18:33:58.353Z,3.90
2022-11-22T18:37:02.459Z,3.40
2022-11-22T18:40:05.296Z,3.43
2022-11-22T18:43:06.906Z,4.10
2022-11-22T18:46:08.512Z,3.30
2022-11-22T18:49:10.259Z,3.33
2022-11-22T18:52:14.952Z,2.80
2022-11-22T18:55:19.498Z,2.50
2022-11-22T18:58:21.120Z,3.00
2022-11-22T19:01:23.521Z,2.87
2022-11-22T19:04:25.131Z,3.70
2022-11-22T19:07:26.721Z,3.63
2022-11-22T19:10:30.285Z,3.50
2022-11-22T19:13:35.530Z,4.10
2022-11-22T19:16:37.190Z,2.67
2022-11-22T19:19:38.864Z,6.40
2022-11-22T19:22:40.545Z,4.60
2022-11-22T19:25:45.347Z,4.70
2022-11-22T19:28:48.299Z,8.90
2022-11-22T19:31:49.896Z,5.27
2022-11-22T19:34:51.524Z,5.10
2022-11-22T19:37:53.103Z,5.40
2022-11-22T19:40:54.748Z,3.10
2022-11-22T19:43:56.738Z,2.77
2022-11-22T19:46:58.344Z,2.90
2022-11-22T19:49:59.942Z,2.53
2022-11-22T19:53:01.518Z,2.70
2022-11-22T19:56:05.283Z,2.30
2022-11-22T19:59:08.052Z,2.67
2022-11-22T20:02:09.740Z,2.27
2022-11-22T20:05:12.008Z,1.60
2022-11-22T20:08:13.591Z,2.00
2022-11-22T20:11:17.032Z,1.70
2022-11-22T20:14:18.806Z,1.50
2022-11-22T20:17:20.546Z,2.40
2022-11-22T20:20:22.125Z,1.67
2022-11-22T20:23:23.713Z,2.17
2022-11-22T20:26:25.528Z,2.67
2022-11-22T20:29:27.817Z,1.20
2022-11-22T20:32:29.471Z,2.13
2022-11-22T20:35:31.057Z,1.77
2022-11-22T20:38:33.800Z,1.70
2022-11-22T20:41:35.581Z,1.80
2022-11-22T20:44:37.188Z,1.77
2022-11-22T20:47:39.032Z,1.67
2022-11-22T20:50:40.657Z,1.27
2022-11-22T20:53:42.907Z,1.50
2022-11-22T20:56:44.437Z,1.40
2022-11-22T20:59:46.027Z,1.83
2022-11-22T21:02:47.673Z,1.10
2022-11-22T21:05:53.503Z,1.50
2022-11-22T21:08:55.162Z,1.47
2022-11-22T21:11:56.728Z,1.77
2022-11-22T21:14:58.357Z,1.63
2022-11-22T21:18:24.013Z,1.80
2022-11-22T21:21:26.126Z,1.70
2022-11-22T21:24:27.692Z,1.93
2022-11-22T21:27:29.569Z,2.20
2022-11-22T21:30:31.216Z,2.03
2022-11-22T21:33:34.005Z,2.13
2022-11-22T21:36:35.627Z,2.10
2022-11-22T21:39:37.200Z,2.40
2022-11-22T21:42:40.679Z,1.80
2022-11-22T21:45:42.233Z,1.80
2022-11-22T21:48:43.903Z,1.80
2022-11-22T21:51:45.835Z,1.93
2022-11-22T21:54:47.485Z,1.40
2022-11-22T21:57:49.068Z,1.47
2022-11-22T22:00:51.527Z,1.67
2022-11-22T22:03:53.610Z,1.80
2022-11-22T22:06:55.185Z,1.83
2022-11-22T22:09:56.794Z,2.03
2022-11-22T22:12:58.524Z,1.97
2022-11-22T22:16:01.130Z,1.57
2022-11-22T22:19:09.286Z,1.77
2022-11-22T22:22:11.255Z,1.60
2022-11-22T22:25:12.814Z,2.50
2022-11-22T22:28:14.404Z,2.00
2022-11-22T22:31:23.173Z,1.60
2022-11-22T22:34:24.963Z,1.30
2022-11-22T22:37:26.640Z,1.60
2022-11-22T22:40:28.269Z,1.73
2022-11-22T22:43:31.308Z,1.67
2022-11-22T22:46:32.905Z,1.50
2022-11-22T22:49:34.659Z,1.60
2022-11-22T22:52:36.283Z,2.10
2022-11-22T22:55:37.859Z,2.03
2022-11-22T22:58:39.865Z,1.60
2022-11-22T23:01:41.567Z,2.17
2022-11-22T23:04:43.243Z,1.90
2022-11-22T23:07:45.068Z,2.33
2022-11-22T23:10:46.771Z,2.33
2022-11-22T23:13:48.369Z,2.43
2022-11-22T23:16:54.554Z,1.97
2022-11-22T23:19:58.848Z,2.00
2022-11-22T23:23:00.411Z,1.93
2022-11-22T23:26:03.029Z,2.10
2022-11-22T23:29:05.040Z,1.80
2022-11-22T23:32:06.689Z,1.50
2022-11-22T23:35:08.512Z,1.83
2022-11-22T23:38:10.180Z,1.83
2022-11-22T23:41:12.747Z,1.93
2022-11-22T23:44:14.298Z,2.10
2022-11-22T23:47:15.917Z,2.13
2022-11-22T23:50:17.543Z,1.70
2022-11-22T23:53:19.121Z,2.07
2022-11-22T23:56:22.108Z,2.00
2022-11-22T23:59:23.831Z,1.60
